createdAt,value
2022-11-02T00:00:50.817Z,7.5
2022-11-02T00:02:01.182Z,7.5
2022-11-02T00:03:11.062Z,7.5
2022-11-02T00:04:20.188Z,7.5
2022-11-02T00:05:29.327Z,7.4
2022-11-02T00:06:38.457Z,7.4
2022-11-02T00:07:48.585Z,7.4
2022-11-02T00:08:57.720Z,7.4
2022-11-02T00:10:06.869Z,7.4
2022-11-02T00:11:16.989Z,7.3
2022-11-02T00:12:27.097Z,7.3
2022-11-02T00:13:37.221Z,7.3
2022-11-02T00:14:47.345Z,7.3
2022-11-02T00:15:57.452Z,7.3
2022-11-02T00:17:07.561Z,7.3
2022-11-02T00:18:17.691Z,7.2
2022-11-02T00:19:27.000Z,7.2
2022-11-02T00:20:37.920Z,7.2
2022-11-02T00:21:48.052Z,7.1
2022-11-02T00:22:58.161Z,7.1
2022-11-02T00:24:08.286Z,7.1
2022-11-02T00:25:17.420Z,7.1
2022-11-02T00:26:27.535Z,7.1
2022-11-02T00:27:37.652Z,7.1
2022-11-02T00:28:47.765Z,7
2022-11-02T00:29:58.136Z,7
2022-11-02T00:31:07.994Z,7
2022-11-02T00:33:28.238Z,7
2022-11-02T00:34:37.391Z,7
2022-11-02T00:35:46.509Z,7
2022-11-02T00:36:55.656Z,7
2022-11-02T00:38:04.794Z,7
2022-11-02T00:39:14.920Z,7
2022-11-02T00:40:25.033Z,7
2022-11-02T00:41:35.157Z,7
2022-11-02T00:42:45.261Z,7
2022-11-02T00:43:55.634Z,7
2022-11-02T00:45:05.504Z,7
2022-11-02T00:46:15.612Z,7
2022-11-02T00:47:25.988Z,7.1
2022-11-02T00:48:35.862Z,7.1
2022-11-02T00:49:45.973Z,7.1
2022-11-02T00:50:56.339Z,7.1
2022-11-02T00:52:06.205Z,7.1
2022-11-02T00:53:15.343Z,7.1
2022-11-02T00:54:25.457Z,7.1
2022-11-02T00:55:35.584Z,7.1
2022-11-02T00:56:45.947Z,7.1
2022-11-02T00:57:56.063Z,7.2
2022-11-02T00:59:05.942Z,7.2
2022-11-02T01:00:16.052Z,7.2
2022-11-02T01:01:25.206Z,7.1
2022-11-02T01:02:34.338Z,7.1
2022-11-02T01:03:44.454Z,7
2022-11-02T01:04:54.575Z,7
2022-11-02T01:06:03.713Z,7
2022-11-02T01:07:12.853Z,7
2022-11-02T01:08:22.958Z,7
2022-11-02T01:09:33.078Z,6.9
2022-11-02T01:10:43.193Z,6.9
2022-11-02T01:11:53.324Z,6.9
2022-11-02T01:13:03.436Z,6.9
2022-11-02T01:14:13.558Z,6.9
2022-11-02T01:15:23.678Z,7
2022-11-02T01:16:33.796Z,7
2022-11-02T01:17:43.902Z,7
2022-11-02T01:18:54.030Z,7.1
2022-11-02T01:20:04.152Z,7.2
2022-11-02T01:21:14.257Z,7.2
2022-11-02T01:22:23.393Z,7.3
2022-11-02T01:23:33.520Z,7.3
2022-11-02T01:24:43.634Z,7.3
2022-11-02T01:25:53.756Z,7.3
2022-11-02T01:27:03.877Z,7.4
2022-11-02T01:28:13.991Z,7.3
2022-11-02T01:29:24.103Z,7.3
2022-11-02T01:30:33.255Z,7.3
2022-11-02T01:31:42.390Z,7.2
2022-11-02T01:32:51.528Z,7.2
2022-11-02T01:34:00.656Z,7.2
2022-11-02T01:35:10.776Z,7.2
2022-11-02T01:36:20.896Z,7.2
2022-11-02T01:37:31.020Z,7.1
2022-11-02T01:38:41.130Z,7.1
2022-11-02T01:39:51.257Z,7.1
2022-11-02T01:41:01.364Z,7.1
2022-11-02T01:42:11.486Z,7.1
2022-11-02T01:43:21.616Z,7.2
2022-11-02T01:44:31.721Z,7.2
2022-11-02T01:45:41.847Z,7.2
2022-11-02T01:46:51.958Z,7.2
2022-11-02T01:48:02.079Z,7.3
2022-11-02T01:49:12.321Z,7.3
2022-11-02T01:50:22.435Z,7.3
2022-11-02T01:51:32.551Z,7.3
2022-11-02T01:52:42.664Z,7.3
2022-11-02T01:53:52.785Z,7.3
2022-11-02T01:55:02.903Z,7.4
2022-11-02T01:56:13.030Z,7.4
2022-11-02T01:57:22.180Z,7.4
2022-11-02T01:58:31.303Z,7.4
2022-11-02T01:59:41.426Z,7.4
2022-11-02T02:00:51.543Z,7.4
2022-11-02T02:02:01.669Z,7.4
2022-11-02T02:04:21.902Z,7.4
2022-11-02T02:05:32.011Z,7.5
2022-11-02T02:06:42.375Z,7.5
2022-11-02T02:07:52.498Z,7.5
2022-11-02T02:09:02.366Z,7.5
2022-11-02T02:10:12.493Z,7.5
2022-11-02T02:11:22.601Z,7.6
2022-11-02T02:12:32.730Z,7.5
2022-11-02T02:13:41.849Z,7.5
2022-11-02T02:14:51.973Z,7.5
2022-11-02T02:16:02.090Z,7.5
2022-11-02T02:17:12.204Z,7.6
2022-11-02T02:18:22.335Z,7.6
2022-11-02T02:19:32.439Z,7.6
2022-11-02T02:20:42.566Z,7.6
2022-11-02T02:21:52.937Z,7.6
2022-11-02T02:23:01.833Z,7.7
2022-11-02T02:24:12.058Z,7.7
2022-11-02T02:25:21.216Z,7.7
2022-11-02T02:26:30.335Z,7.7
2022-11-02T02:27:40.467Z,7.8
2022-11-02T02:28:49.597Z,7.8
2022-11-02T02:29:58.736Z,7.7
2022-11-02T02:31:08.852Z,7.7
2022-11-02T02:32:19.219Z,7.8
2022-11-02T02:33:29.089Z,7.8
2022-11-02T02:34:39.208Z,7.8
2022-11-02T02:35:49.575Z,7.8
2022-11-02T02:36:59.438Z,7.8
2022-11-02T02:38:09.568Z,7.8
2022-11-02T02:39:19.675Z,7.8
2022-11-02T02:40:29.803Z,7.8
2022-11-02T02:41:39.912Z,7.8
2022-11-02T02:42:50.034Z,7.8
2022-11-02T02:44:00.161Z,7.8
2022-11-02T02:45:10.403Z,7.7
2022-11-02T02:46:20.513Z,7.7
2022-11-02T02:47:30.622Z,7.8
2022-11-02T02:48:40.976Z,7.8
2022-11-02T02:49:50.863Z,7.8
2022-11-02T02:51:00.989Z,7.8
2022-11-02T02:52:11.094Z,7.8
2022-11-02T02:53:21.221Z,7.8
2022-11-02T02:54:31.344Z,7.8
2022-11-02T02:55:41.464Z,7.8
2022-11-02T02:56:51.572Z,7.9
2022-11-02T02:58:01.703Z,7.9
2022-11-02T03:00:21.933Z,7.9
2022-11-02T03:01:31.072Z,7.9
2022-11-02T03:02:41.186Z,7.9
2022-11-02T03:03:51.457Z,8
2022-11-02T03:05:00.586Z,7.9
2022-11-02T03:06:10.690Z,8
2022-11-02T03:07:20.815Z,7.9
2022-11-02T03:08:30.942Z,7.9
2022-11-02T03:09:41.044Z,7.9
2022-11-02T03:10:51.168Z,7.8
2022-11-02T03:12:01.292Z,7.8
2022-11-02T03:13:11.398Z,7.8
2022-11-02T03:14:21.518Z,7.8
2022-11-02T03:15:31.642Z,7.8
2022-11-02T03:16:41.771Z,7.7
2022-11-02T03:17:51.872Z,7.7
2022-11-02T03:19:01.989Z,7.7
2022-11-02T03:20:11.128Z,7.7
2022-11-02T03:21:21.247Z,7.7
2022-11-02T03:22:31.357Z,7.6
2022-11-02T03:23:41.482Z,7.6
2022-11-02T03:24:51.603Z,7.6
2022-11-02T03:26:01.727Z,7.5
2022-11-02T03:27:11.835Z,7.5
2022-11-02T03:28:20.986Z,7.4
2022-11-02T03:29:30.110Z,7.4
2022-11-02T03:30:39.271Z,7.4
2022-11-02T03:31:48.639Z,7.4
2022-11-02T03:32:58.519Z,7.4
2022-11-02T03:34:08.622Z,7.4
2022-11-02T03:35:18.740Z,7.4
2022-11-02T03:36:28.869Z,7.5
2022-11-02T03:37:39.226Z,7.5
2022-11-02T03:38:49.105Z,7.5
2022-11-02T03:39:59.226Z,7.4
2022-11-02T03:41:09.343Z,7.4
2022-11-02T03:42:19.448Z,7.4
2022-11-02T03:43:28.592Z,7.4
2022-11-02T03:44:38.723Z,7.4
2022-11-02T03:45:48.828Z,7.4
2022-11-02T03:46:58.951Z,7.3
2022-11-02T03:48:09.078Z,7.3
2022-11-02T03:49:19.192Z,7.3
2022-11-02T03:50:29.299Z,7.3
2022-11-02T03:51:39.421Z,7.3
2022-11-02T03:52:49.533Z,7.3
2022-11-02T03:53:59.656Z,7.3
2022-11-02T03:55:08.811Z,7.3
2022-11-02T03:56:17.932Z,7.3
2022-11-02T03:57:28.058Z,7.2
2022-11-02T03:58:38.167Z,7.2
2022-11-02T03:59:48.288Z,7.2
2022-11-02T04:00:58.403Z,7.3
2022-11-02T04:02:08.531Z,7.2
2022-11-02T04:03:18.637Z,7.2
2022-11-02T04:04:28.765Z,7.2
2022-11-02T04:05:38.889Z,7.2
2022-11-02T04:06:49.243Z,7.3
2022-11-02T04:07:59.116Z,7.3
2022-11-02T04:09:09.239Z,7.4
2022-11-02T04:10:19.605Z,7.4
2022-11-02T04:11:28.479Z,7.4
2022-11-02T04:12:38.597Z,7.5
2022-11-02T04:13:48.723Z,7.5
2022-11-02T04:14:58.844Z,7.5
2022-11-02T04:16:08.952Z,7.6
2022-11-02T04:17:19.069Z,7.6
2022-11-02T04:18:29.196Z,7.6
2022-11-02T04:19:38.343Z,7.6
2022-11-02T04:20:48.465Z,7.6
2022-11-02T04:21:57.609Z,7.6
2022-11-02T04:23:07.721Z,7.7
2022-11-02T04:24:16.858Z,7.7
2022-11-02T04:25:25.997Z,7.7
2022-11-02T04:26:36.125Z,7.7
2022-11-02T04:27:46.236Z,7.7
2022-11-02T04:28:56.352Z,7.7
2022-11-02T04:30:06.476Z,7.7
2022-11-02T04:31:16.594Z,7.7
2022-11-02T04:32:26.706Z,7.7
2022-11-02T04:33:36.828Z,7.6
2022-11-02T04:34:46.938Z,7.7
2022-11-02T04:35:57.061Z,7.7
2022-11-02T04:37:07.189Z,7.6
2022-11-02T04:38:17.293Z,7.6
2022-11-02T04:39:27.425Z,7.6
2022-11-02T04:40:36.559Z,7.6
2022-11-02T04:41:46.664Z,7.6
2022-11-02T04:42:56.794Z,7.6
2022-11-02T04:44:06.901Z,7.7
2022-11-02T04:45:17.017Z,7.7
2022-11-02T04:46:27.142Z,7.7
2022-11-02T04:47:37.267Z,7.7
2022-11-02T04:49:57.639Z,7.7
2022-11-02T04:51:06.784Z,7.7
2022-11-02T04:52:15.925Z,7.6
2022-11-02T04:53:25.065Z,7.6
2022-11-02T04:54:34.204Z,7.6
2022-11-02T04:55:44.306Z,7.6
2022-11-02T04:56:54.433Z,7.6
2022-11-02T04:58:04.543Z,7.7
2022-11-02T04:59:14.674Z,7.7
2022-11-02T05:00:24.783Z,7.8
2022-11-02T05:01:34.896Z,7.8
2022-11-02T05:02:45.027Z,7.9
2022-11-02T05:03:55.151Z,7.9
2022-11-02T05:05:05.258Z,8
2022-11-02T05:06:15.385Z,8.1
2022-11-02T05:07:25.504Z,8.1
2022-11-02T05:08:35.614Z,8.1
2022-11-02T05:09:44.754Z,8.2
2022-11-02T05:10:54.859Z,8.2
2022-11-02T05:12:05.222Z,8.2
2022-11-02T05:13:15.095Z,8.2
2022-11-02T05:14:25.224Z,8.2
2022-11-02T05:15:35.343Z,8.2
2022-11-02T05:16:45.451Z,8.2
2022-11-02T05:17:54.595Z,8.3
2022-11-02T05:19:03.733Z,8.3
2022-11-02T05:20:12.883Z,8.3
2022-11-02T05:21:22.015Z,8.3
2022-11-02T05:22:32.130Z,8.3
2022-11-02T05:23:42.490Z,8.3
2022-11-02T05:24:52.363Z,8.3
2022-11-02T05:26:02.484Z,8.3
2022-11-02T05:27:12.608Z,8.4
2022-11-02T05:28:22.726Z,8.5
2022-11-02T05:29:32.834Z,8.5
2022-11-02T05:30:42.961Z,8.6
2022-11-02T05:31:53.068Z,8.7
2022-11-02T05:33:03.194Z,8.7
2022-11-02T05:34:13.301Z,8.7
2022-11-02T05:35:23.430Z,8.8
2022-11-02T05:36:32.568Z,8.9
2022-11-02T05:37:42.688Z,8.9
2022-11-02T05:38:52.794Z,8.9
2022-11-02T05:40:02.913Z,8.9
2022-11-02T05:41:13.035Z,9
2022-11-02T05:42:23.145Z,9
2022-11-02T05:43:33.272Z,9.1
2022-11-02T05:44:42.403Z,9.1
2022-11-02T05:45:51.551Z,9.2
2022-11-02T05:47:01.656Z,9.2
2022-11-02T05:48:11.781Z,9.2
2022-11-02T05:49:21.909Z,9.3
2022-11-02T05:50:32.022Z,9.3
2022-11-02T05:51:42.143Z,9.4
2022-11-02T05:52:52.250Z,9.4
2022-11-02T05:54:02.378Z,9.4
2022-11-02T05:55:12.496Z,9.4
2022-11-02T05:56:22.603Z,9.5
2022-11-02T05:57:32.727Z,9.5
2022-11-02T05:58:42.839Z,9.5
2022-11-02T05:59:52.967Z,9.6
2022-11-02T06:01:02.106Z,9.6
2022-11-02T06:02:12.212Z,9.6
2022-11-02T06:03:22.335Z,9.6
2022-11-02T06:04:32.453Z,9.6
2022-11-02T06:05:42.560Z,9.6
2022-11-02T06:06:52.685Z,9.7
2022-11-02T06:08:02.807Z,9.7
2022-11-02T06:09:11.945Z,9.7
2022-11-02T06:10:21.074Z,9.7
2022-11-02T06:11:30.000Z,9.7
2022-11-02T06:12:39.352Z,9.7
2022-11-02T06:13:49.481Z,9.8
2022-11-02T06:14:59.604Z,9.8
2022-11-02T06:16:09.707Z,9.8
2022-11-02T06:17:19.830Z,9.8
2022-11-02T06:18:29.951Z,9.9
2022-11-02T06:19:40.077Z,10
2022-11-02T06:20:50.190Z,10
2022-11-02T06:22:00.300Z,10
2022-11-02T06:23:10.427Z,10
2022-11-02T06:24:20.548Z,10.1
2022-11-02T06:25:30.656Z,10.1
2022-11-02T06:26:40.783Z,10
2022-11-02T06:27:49.902Z,10.1
2022-11-02T06:29:00.028Z,10.2
2022-11-02T06:30:10.154Z,10.2
2022-11-02T06:31:20.256Z,10.2
2022-11-02T06:32:30.388Z,10.1
2022-11-02T06:33:40.493Z,10.2
2022-11-02T06:34:50.614Z,10.2
2022-11-02T06:35:59.764Z,10
2022-11-02T06:37:08.895Z,10.1
2022-11-02T06:38:18.034Z,10.1
2022-11-02T06:39:28.276Z,10
2022-11-02T06:40:38.397Z,10
2022-11-02T06:41:48.515Z,10.1
2022-11-02T06:42:58.627Z,10
2022-11-02T06:44:08.757Z,10
2022-11-02T06:45:18.870Z,10
2022-11-02T06:46:28.992Z,10
2022-11-02T06:47:39.095Z,10
2022-11-02T06:48:49.215Z,10
2022-11-02T06:49:59.337Z,9.9
2022-11-02T06:51:09.462Z,9.9
2022-11-02T06:52:19.567Z,9.9
2022-11-02T06:53:29.684Z,9.8
2022-11-02T06:54:38.820Z,9.8
2022-11-02T06:55:48.941Z,9.8
2022-11-02T06:56:59.065Z,9.9
2022-11-02T06:58:09.176Z,9.8
2022-11-02T06:59:19.300Z,9.9
2022-11-02T07:00:29.421Z,9.8
2022-11-02T07:01:39.525Z,9.8
2022-11-02T07:02:48.673Z,9.7
2022-11-02T07:05:07.922Z,9.7
2022-11-02T07:06:18.054Z,9.7
2022-11-02T07:07:28.321Z,9.7
2022-11-02T07:08:37.446Z,9.7
2022-11-02T07:09:47.574Z,9.7
2022-11-02T07:10:57.679Z,9.8
2022-11-02T07:12:07.796Z,9.8
2022-11-02T07:13:17.919Z,9.8
2022-11-02T07:14:28.030Z,9.8
2022-11-02T07:15:38.157Z,9.8
2022-11-02T07:16:48.278Z,9.8
2022-11-02T07:17:58.393Z,9.8
2022-11-02T07:19:08.497Z,9.7
2022-11-02T07:20:18.616Z,9.8
2022-11-02T07:21:28.737Z,9.8
2022-11-02T07:22:38.858Z,9.8
2022-11-02T07:23:47.998Z,9.8
2022-11-02T07:24:58.105Z,9.9
2022-11-02T07:26:08.225Z,9.9
2022-11-02T07:27:18.349Z,10
2022-11-02T07:28:28.470Z,10
2022-11-02T07:29:38.591Z,10
2022-11-02T07:30:48.698Z,10
2022-11-02T07:31:57.842Z,10.1
2022-11-02T07:33:06.978Z,10.1
2022-11-02T07:34:16.114Z,10.1
2022-11-02T07:35:26.363Z,10.2
2022-11-02T07:36:36.475Z,10.3
2022-11-02T07:37:45.629Z,10.3
2022-11-02T07:38:55.743Z,10.4
2022-11-02T07:40:05.851Z,10.5
2022-11-02T07:41:15.967Z,10.6
2022-11-02T07:42:26.084Z,10.7
2022-11-02T07:43:36.463Z,10.7
2022-11-02T07:44:46.335Z,10.8
2022-11-02T07:45:56.440Z,10.9
2022-11-02T07:47:06.572Z,10.9
2022-11-02T07:48:16.675Z,10.9
2022-11-02T07:49:26.794Z,10.9
2022-11-02T07:50:36.908Z,11
2022-11-02T07:51:47.029Z,11
2022-11-02T07:52:56.172Z,11.1
2022-11-02T07:54:06.287Z,11.1
2022-11-02T07:55:16.399Z,11.2
2022-11-02T07:56:26.519Z,11.2
2022-11-02T07:57:36.638Z,11.3
2022-11-02T07:58:45.779Z,11.4
2022-11-02T07:59:54.913Z,11.4
2022-11-02T08:01:05.040Z,11.5
2022-11-02T08:02:14.181Z,11.5
2022-11-02T08:03:23.319Z,11.6
2022-11-02T08:04:33.666Z,11.6
2022-11-02T08:05:43.540Z,11.6
2022-11-02T08:06:53.672Z,11.6
2022-11-02T08:08:03.784Z,11.6
2022-11-02T08:09:13.908Z,11.6
2022-11-02T08:10:24.028Z,11.7
2022-11-02T08:11:34.131Z,11.7
2022-11-02T08:12:44.259Z,11.6
2022-11-02T08:13:54.380Z,11.7
2022-11-02T08:15:04.496Z,11.8
2022-11-02T08:16:14.618Z,11.8
2022-11-02T08:17:24.717Z,11.8
2022-11-02T08:18:33.854Z,11.8
2022-11-02T08:19:43.979Z,11.9
2022-11-02T08:20:54.098Z,12
2022-11-02T08:22:04.215Z,12
2022-11-02T08:23:14.324Z,12
2022-11-02T08:24:24.446Z,12
2022-11-02T08:25:34.572Z,12.1
2022-11-02T08:26:43.706Z,12
2022-11-02T08:27:52.851Z,12.1
2022-11-02T08:29:02.959Z,12
2022-11-02T08:30:12.109Z,12.2
2022-11-02T08:31:21.249Z,12.2
2022-11-02T08:32:31.360Z,12.1
2022-11-02T08:33:41.469Z,12.2
2022-11-02T08:34:51.589Z,12.3
2022-11-02T08:36:01.713Z,12.3
2022-11-02T08:37:11.820Z,12.3
2022-11-02T08:38:21.947Z,12.4
2022-11-02T08:39:32.064Z,12.4
2022-11-02T08:40:42.174Z,12.5
2022-11-02T08:41:52.300Z,12.5
2022-11-02T08:43:02.409Z,12.6
2022-11-02T08:44:12.536Z,12.5
2022-11-02T08:45:22.662Z,12.6
2022-11-02T08:47:42.160Z,12.7
2022-11-02T08:48:52.025Z,12.6
2022-11-02T08:50:02.134Z,12.7
2022-11-02T08:51:12.253Z,12.7
2022-11-02T08:52:22.377Z,12.8
2022-11-02T08:53:32.501Z,12.8
2022-11-02T08:54:42.609Z,12.7
2022-11-02T08:55:51.751Z,12.8
2022-11-02T08:57:00.884Z,12.9
2022-11-02T08:58:11.016Z,12.9
2022-11-02T08:59:21.129Z,13
2022-11-02T09:00:31.233Z,13.2
2022-11-02T09:01:41.367Z,13.2
2022-11-02T09:02:51.472Z,13.1
2022-11-02T09:04:01.602Z,13.2
2022-11-02T09:05:11.723Z,13.4
2022-11-02T09:06:21.829Z,13.4
2022-11-02T09:07:31.953Z,13.3
2022-11-02T09:08:42.060Z,13.4
2022-11-02T09:09:52.185Z,13.3
2022-11-02T09:11:02.537Z,13.4
2022-11-02T09:12:12.543Z,13.4
2022-11-02T09:13:22.652Z,13.5
2022-11-02T09:14:32.780Z,13.4
2022-11-02T09:15:42.886Z,13.5
2022-11-02T09:16:53.005Z,13.6
2022-11-02T09:18:03.136Z,13.6
2022-11-02T09:19:13.246Z,13.6
2022-11-02T09:20:22.391Z,13.6
2022-11-02T09:21:32.621Z,13.6
2022-11-02T09:22:42.016Z,13.7
2022-11-02T09:23:50.913Z,13.8
2022-11-02T09:25:01.021Z,13.8
2022-11-02T09:26:11.385Z,13.9
2022-11-02T09:27:21.253Z,14
2022-11-02T09:28:30.409Z,13.9
2022-11-02T09:29:39.544Z,13.9
2022-11-02T09:32:00.027Z,13.8
2022-11-02T09:33:09.900Z,13.8
2022-11-02T09:34:20.015Z,13.8
2022-11-02T09:35:30.121Z,13.9
2022-11-02T09:36:40.250Z,13.9
2022-11-02T09:37:50.362Z,13.8
2022-11-02T09:39:00.713Z,13.9
2022-11-02T09:40:10.593Z,13.9
2022-11-02T09:41:20.717Z,14.1
2022-11-02T09:42:30.838Z,14.2
2022-11-02T09:43:40.946Z,14.3
2022-11-02T09:44:50.083Z,14.2
2022-11-02T09:46:00.206Z,14.4
2022-11-02T09:47:10.314Z,14.4
2022-11-02T09:48:20.436Z,14.4
2022-11-02T09:49:30.550Z,14.4
2022-11-02T09:50:40.672Z,14.5
2022-11-02T09:51:50.791Z,14.3
2022-11-02T09:53:00.901Z,14.3
2022-11-02T09:54:10.050Z,14.3
2022-11-02T09:55:19.184Z,14.3
2022-11-02T09:56:28.323Z,14.4
2022-11-02T09:57:37.460Z,14.4
2022-11-02T09:58:47.584Z,14.3
2022-11-02T09:59:57.687Z,14.2
2022-11-02T10:01:07.823Z,14.2
2022-11-02T10:02:17.940Z,14.2
2022-11-02T10:03:28.047Z,14.2
2022-11-02T10:04:38.000Z,14.3
2022-11-02T10:05:48.285Z,14.4
2022-11-02T10:06:58.410Z,14.4
2022-11-02T10:08:08.516Z,14.3
2022-11-02T10:09:18.640Z,14.4
2022-11-02T10:10:28.760Z,14.4
2022-11-02T10:11:38.863Z,14.6
2022-11-02T10:12:48.001Z,14.5
2022-11-02T10:13:58.129Z,14.4
2022-11-02T10:15:08.251Z,14.4
2022-11-02T10:16:18.351Z,14.3
2022-11-02T10:17:28.481Z,14.4
2022-11-02T10:18:38.584Z,14.5
2022-11-02T10:19:48.705Z,14.5
2022-11-02T10:20:57.851Z,14.5
2022-11-02T10:22:06.989Z,14.4
2022-11-02T10:23:17.101Z,14.4
2022-11-02T10:24:27.218Z,14.5
2022-11-02T10:25:36.364Z,14.5
2022-11-02T10:26:45.504Z,14.6
2022-11-02T10:27:55.615Z,14.7
2022-11-02T10:29:05.740Z,14.8
2022-11-02T10:30:15.863Z,14.8
2022-11-02T10:31:25.973Z,14.8
2022-11-02T10:32:36.085Z,14.9
2022-11-02T10:33:46.200Z,15
2022-11-02T10:34:56.321Z,15
2022-11-02T10:36:06.445Z,15.1
2022-11-02T10:37:16.552Z,15.2
2022-11-02T10:38:26.683Z,14.9
2022-11-02T10:39:36.799Z,14.7
2022-11-02T10:40:46.906Z,14.6
2022-11-02T10:41:56.039Z,14.4
2022-11-02T10:43:06.167Z,14.3
2022-11-02T10:44:16.292Z,14.3
2022-11-02T10:45:26.398Z,14.2
2022-11-02T10:46:36.527Z,14.2
2022-11-02T10:47:46.633Z,14.3
2022-11-02T10:48:56.744Z,14.2
2022-11-02T10:50:05.899Z,14.3
2022-11-02T10:51:15.026Z,14.2
2022-11-02T10:52:24.182Z,14.2
2022-11-02T10:53:33.302Z,14.1
2022-11-02T10:55:53.551Z,14.1
2022-11-02T10:57:03.657Z,14.1
2022-11-02T10:58:13.786Z,14
2022-11-02T10:59:23.892Z,14.2
2022-11-02T11:00:34.006Z,14.2
2022-11-02T11:01:44.137Z,14.3
2022-11-02T11:02:54.240Z,14.5
2022-11-02T11:04:04.365Z,14.6
2022-11-02T11:05:14.488Z,14.8
2022-11-02T11:06:24.592Z,14.9
2022-11-02T11:07:34.720Z,15
2022-11-02T11:08:43.850Z,15.4
2022-11-02T11:09:53.974Z,15.5
2022-11-02T11:11:04.079Z,15.6
2022-11-02T11:12:14.212Z,15.6
2022-11-02T11:13:24.314Z,15.5
2022-11-02T11:14:34.438Z,15.4
2022-11-02T11:15:44.565Z,15.6
2022-11-02T11:16:54.676Z,15.6
2022-11-02T11:18:03.821Z,15.5
2022-11-02T11:19:12.961Z,15.2
2022-11-02T11:20:22.091Z,15.3
2022-11-02T11:21:31.229Z,15.3
2022-11-02T11:22:41.352Z,15.3
2022-11-02T11:23:51.457Z,15.4
2022-11-02T11:25:01.587Z,15.3
2022-11-02T11:26:11.938Z,15.6
2022-11-02T11:27:21.827Z,15.7
2022-11-02T11:28:31.936Z,15.8
2022-11-02T11:29:42.055Z,15.5
2022-11-02T11:30:52.164Z,15.5
2022-11-02T11:32:01.300Z,15.8
2022-11-02T11:33:11.419Z,16
2022-11-02T11:34:21.546Z,15.8
2022-11-02T11:35:31.657Z,15.6
2022-11-02T11:36:41.783Z,15.3
2022-11-02T11:37:51.889Z,15.3
2022-11-02T11:39:02.016Z,15.3
2022-11-02T11:40:12.138Z,15.3
2022-11-02T11:41:22.248Z,15.1
2022-11-02T11:42:32.374Z,14.9
2022-11-02T11:43:42.480Z,14.8
2022-11-02T11:44:52.607Z,14.5
2022-11-02T11:46:02.728Z,14.7
2022-11-02T11:47:11.860Z,14.5
2022-11-02T11:48:21.974Z,14.5
2022-11-02T11:49:32.096Z,14.3
2022-11-02T11:50:42.202Z,14.1
2022-11-02T11:51:52.329Z,13.9
2022-11-02T11:54:12.789Z,13.5
2022-11-02T11:55:22.672Z,13.4
2022-11-02T11:56:32.799Z,13.4
2022-11-02T11:57:42.903Z,13.2
2022-11-02T11:58:53.037Z,13.2
2022-11-02T12:00:03.140Z,13.3
2022-11-02T12:01:13.273Z,13.5
2022-11-02T12:03:33.610Z,13.7
2022-11-02T12:04:43.747Z,13.9
2022-11-02T12:05:53.846Z,14.2
2022-11-02T12:07:03.002Z,14.1
2022-11-02T12:08:12.127Z,14.2
2022-11-02T12:09:22.258Z,14.2
2022-11-02T12:10:31.395Z,14.1
2022-11-02T12:11:40.519Z,14.1
2022-11-02T12:12:50.642Z,14.2
2022-11-02T12:14:00.771Z,14.1
2022-11-02T12:15:10.886Z,14.1
2022-11-02T12:16:20.995Z,13.9
2022-11-02T12:17:31.363Z,13.8
2022-11-02T12:18:41.232Z,13.7
2022-11-02T12:19:51.359Z,13.8
2022-11-02T12:21:01.460Z,13.9
2022-11-02T12:22:11.585Z,13.8
2022-11-02T12:23:21.696Z,13.6
2022-11-02T12:24:31.816Z,13.8
2022-11-02T12:25:41.943Z,14
2022-11-02T12:26:51.062Z,13.8
2022-11-02T12:28:01.179Z,13.7
2022-11-02T12:29:11.300Z,13.7
2022-11-02T12:30:21.421Z,13.7
2022-11-02T12:31:31.545Z,13.7
2022-11-02T12:32:41.661Z,13.7
2022-11-02T12:33:51.768Z,13.8
2022-11-02T12:35:02.052Z,13.8
2022-11-02T12:37:21.263Z,13.9
2022-11-02T12:38:30.416Z,14
2022-11-02T12:39:39.552Z,14.2
2022-11-02T12:40:49.660Z,14.4
2022-11-02T12:41:59.786Z,14.4
2022-11-02T12:43:09.895Z,14.4
2022-11-02T12:44:20.016Z,14.4
2022-11-02T12:45:30.127Z,14.5
2022-11-02T12:46:40.256Z,14.5
2022-11-02T12:47:50.623Z,14.4
2022-11-02T12:49:00.490Z,14.5
2022-11-02T12:50:10.598Z,14.6
2022-11-02T12:51:20.718Z,14.7
2022-11-02T12:52:30.847Z,14.9
2022-11-02T12:53:40.954Z,15.1
2022-11-02T12:54:50.084Z,15.1
2022-11-02T12:56:00.201Z,15
2022-11-02T12:57:10.316Z,15
2022-11-02T12:58:20.442Z,14.9
2022-11-02T12:59:30.564Z,15
2022-11-02T13:00:40.687Z,14.7
2022-11-02T13:01:50.798Z,14.8
2022-11-02T13:02:59.945Z,14.4
2022-11-02T13:04:10.050Z,14.2
2022-11-02T13:05:19.456Z,14
2022-11-02T13:06:28.326Z,13.7
2022-11-02T13:07:38.458Z,13.3
2022-11-02T13:08:48.564Z,12.9
2022-11-02T13:09:58.685Z,12.8
2022-11-02T13:11:08.809Z,12.7
2022-11-02T13:12:18.927Z,12.7
2022-11-02T13:13:29.049Z,12.7
2022-11-02T13:14:39.167Z,12.9
2022-11-02T13:15:49.281Z,13.1
2022-11-02T13:16:59.401Z,13.2
2022-11-02T13:18:09.508Z,13.2
2022-11-02T13:19:19.626Z,13.2
2022-11-02T13:20:29.753Z,13.3
2022-11-02T13:22:49.006Z,13.3
2022-11-02T13:23:59.106Z,13.2
2022-11-02T13:25:09.233Z,13.2
2022-11-02T13:26:19.349Z,13.1
2022-11-02T13:27:29.726Z,13.1
2022-11-02T13:28:39.587Z,12.9
2022-11-02T13:29:49.710Z,12.9
2022-11-02T13:30:59.975Z,12.8
2022-11-02T13:32:09.092Z,12.6
2022-11-02T13:33:18.246Z,12.6
2022-11-02T13:34:28.475Z,12.5
2022-11-02T13:35:38.596Z,12.5
2022-11-02T13:36:48.724Z,12.6
2022-11-02T13:37:58.840Z,12.6
2022-11-02T13:39:08.958Z,12.6
2022-11-02T13:40:19.070Z,12.5
2022-11-02T13:41:29.196Z,12.5
2022-11-02T13:42:39.310Z,12.4
2022-11-02T13:43:49.417Z,12.5
2022-11-02T13:44:59.536Z,12.4
2022-11-02T13:46:09.661Z,12.4
2022-11-02T13:47:19.784Z,12.6
2022-11-02T13:48:29.886Z,12.5
2022-11-02T13:49:39.037Z,12.5
2022-11-02T13:50:49.141Z,12.6
2022-11-02T13:51:59.259Z,12.5
2022-11-02T13:53:09.389Z,12.6
2022-11-02T13:54:19.491Z,12.7
2022-11-02T13:55:29.618Z,12.7
2022-11-02T13:56:39.728Z,12.6
2022-11-02T13:57:48.879Z,12.7
2022-11-02T13:58:58.019Z,12.7
2022-11-02T14:00:08.128Z,12.6
2022-11-02T14:01:17.276Z,12.5
2022-11-02T14:02:26.398Z,12.4
2022-11-02T14:03:36.521Z,12.4
2022-11-02T14:04:46.641Z,12.4
2022-11-02T14:05:56.765Z,12.3
2022-11-02T14:07:06.886Z,12.2
2022-11-02T14:08:17.000Z,11.6
2022-11-02T14:09:27.105Z,11.2
2022-11-02T14:10:37.234Z,10.8
2022-11-02T14:11:47.357Z,10.7
2022-11-02T14:12:57.476Z,10.5
2022-11-02T14:14:07.591Z,10.2
2022-11-02T14:15:17.708Z,10.2
2022-11-02T14:16:27.812Z,10.2
2022-11-02T14:17:36.959Z,10.1
2022-11-02T14:18:47.076Z,10
2022-11-02T14:19:57.180Z,10
2022-11-02T14:21:07.300Z,10.1
2022-11-02T14:22:17.425Z,10
2022-11-02T14:23:27.542Z,9.9
2022-11-02T14:24:37.661Z,9.9
2022-11-02T14:25:46.797Z,10
2022-11-02T14:26:55.943Z,9.9
2022-11-02T14:28:06.062Z,10
2022-11-02T14:29:16.167Z,10
2022-11-02T14:30:25.309Z,10
2022-11-02T14:31:34.447Z,10
2022-11-02T14:32:44.823Z,10
2022-11-02T14:33:54.696Z,10
2022-11-02T14:35:04.799Z,10
2022-11-02T14:36:14.928Z,10
2022-11-02T14:37:25.034Z,10.1
2022-11-02T14:38:35.159Z,10.1
2022-11-02T14:39:45.279Z,10.1
2022-11-02T14:40:55.399Z,10.1
2022-11-02T14:42:05.515Z,10.2
2022-11-02T14:43:15.626Z,10.2
2022-11-02T14:44:25.756Z,10.3
2022-11-02T14:45:35.871Z,10.3
2022-11-02T14:46:44.990Z,10.4
2022-11-02T14:47:55.115Z,10.3
2022-11-02T14:49:05.240Z,10.4
2022-11-02T14:50:15.356Z,10.3
2022-11-02T14:51:25.476Z,10.4
2022-11-02T14:52:35.585Z,10.4
2022-11-02T14:53:45.712Z,10.4
2022-11-02T14:54:54.842Z,10.4
2022-11-02T14:56:03.992Z,10.4
2022-11-02T14:57:13.126Z,10.5
2022-11-02T14:58:22.268Z,10.6
2022-11-02T14:59:32.374Z,10.6
2022-11-02T15:00:42.500Z,10.6
2022-11-02T15:01:52.611Z,10.6
2022-11-02T15:03:02.740Z,10.6
2022-11-02T15:04:12.851Z,10.6
2022-11-02T15:05:23.223Z,10.7
2022-11-02T15:06:33.080Z,10.7
2022-11-02T15:07:43.206Z,10.7
2022-11-02T15:08:53.315Z,10.7
2022-11-02T15:10:03.444Z,10.7
2022-11-02T15:11:13.562Z,10.6
2022-11-02T15:12:23.676Z,10.7
2022-11-02T15:13:32.809Z,10.6
2022-11-02T15:14:42.934Z,10.6
2022-11-02T15:15:53.047Z,10.6
2022-11-02T15:17:03.159Z,10.5
2022-11-02T15:18:13.533Z,10.5
2022-11-02T15:19:23.395Z,10.5
2022-11-02T15:20:33.520Z,10.4
2022-11-02T15:21:42.664Z,10.3
2022-11-02T15:22:51.798Z,10.3
2022-11-02T15:24:01.906Z,10.4
2022-11-02T15:25:11.062Z,10.3
2022-11-02T15:26:20.194Z,10.4
2022-11-02T15:27:30.305Z,10.3
2022-11-02T15:28:40.435Z,10.3
2022-11-02T15:29:50.551Z,10.3
2022-11-02T15:31:00.673Z,10.2
2022-11-02T15:33:20.900Z,10.2
2022-11-02T15:34:31.019Z,10.2
2022-11-02T15:35:41.136Z,10.1
2022-11-02T15:36:51.261Z,10.1
2022-11-02T15:38:01.363Z,10
2022-11-02T15:39:11.486Z,10.1
2022-11-02T15:40:21.607Z,10.1
2022-11-02T15:41:30.732Z,10.1
2022-11-02T15:42:40.860Z,10.1
2022-11-02T15:43:50.970Z,10.1
2022-11-02T15:45:01.090Z,9.9
2022-11-02T15:46:11.217Z,9.9
2022-11-02T15:47:21.584Z,9.9
2022-11-02T15:48:31.444Z,10
2022-11-02T15:49:41.559Z,10
2022-11-02T15:50:51.694Z,10
2022-11-02T15:52:01.810Z,10
2022-11-02T15:53:12.064Z,10
2022-11-02T15:54:21.198Z,10
2022-11-02T15:55:30.351Z,9.9
2022-11-02T15:56:39.480Z,9.9
2022-11-02T15:57:49.594Z,9.9
2022-11-02T15:58:59.722Z,10
2022-11-02T16:00:09.825Z,10
2022-11-02T16:01:19.950Z,10
2022-11-02T16:02:30.079Z,10
2022-11-02T16:03:40.182Z,10.1
2022-11-02T16:04:50.311Z,10.1
2022-11-02T16:06:00.677Z,10.1
2022-11-02T16:07:10.533Z,10.1